createdAt,value
2018-02-09T00:00:28.779Z,-2.78
2018-02-09T00:02:56.177Z,-2.73
2018-02-09T00:05:23.574Z,-2.74
2018-02-09T00:07:50.989Z,-2.72
2018-02-09T00:10:18.379Z,-2.68
2018-02-09T00:12:45.816Z,-2.65
2018-02-09T00:15:13.210Z,-2.61
2018-02-09T00:17:40.631Z,-2.61
2018-02-09T00:20:08.078Z,-2.61
2018-02-09T00:22:47.613Z,-2.59
2018-02-09T00:25:15.074Z,-2.66
2018-02-09T00:27:42.473Z,-2.80
2018-02-09T00:30:09.977Z,-2.74
2018-02-09T00:32:37.386Z,-2.73
2018-02-09T00:35:04.786Z,-2.73
2018-02-09T00:37:32.174Z,-2.71
2018-02-09T00:39:59.582Z,-2.70
2018-02-09T00:42:27.054Z,-2.78
2018-02-09T00:44:54.466Z,-2.77
2018-02-09T00:47:21.890Z,-2.76
2018-02-09T00:49:49.296Z,-2.85
2018-02-09T00:52:16.692Z,-2.95
2018-02-09T00:54:44.126Z,-3.03
2018-02-09T00:57:11.529Z,-3.11
2018-02-09T00:59:38.948Z,-3.14
2018-02-09T01:02:06.403Z,-3.19
2018-02-09T01:04:33.807Z,-3.16
2018-02-09T01:07:01.207Z,-3.11
2018-02-09T01:09:28.614Z,-3.13
2018-02-09T01:11:56.027Z,-3.17
2018-02-09T01:14:23.447Z,-3.18
2018-02-09T01:16:50.843Z,-3.19
2018-02-09T01:19:18.250Z,-3.18
2018-02-09T01:21:45.647Z,-3.18
2018-02-09T01:24:13.075Z,-3.20
2018-02-09T01:26:40.555Z,-3.24
2018-02-09T01:29:07.963Z,-3.31
2018-02-09T01:31:35.355Z,-3.36
2018-02-09T01:34:02.842Z,-3.35
2018-02-09T01:36:30.238Z,-3.37
2018-02-09T01:38:57.710Z,-3.36
2018-02-09T01:41:25.103Z,-3.40
2018-02-09T01:43:52.515Z,-3.41
2018-02-09T01:46:19.907Z,-3.41
2018-02-09T01:48:47.336Z,-3.42
2018-02-09T01:51:14.726Z,-3.52
2018-02-09T01:53:42.134Z,-3.70
2018-02-09T01:56:09.600Z,-3.77
2018-02-09T01:58:37.002Z,-3.84
2018-02-09T02:01:04.405Z,-3.99
2018-02-09T02:03:31.864Z,-4.16
2018-02-09T02:05:59.254Z,-4.19
2018-02-09T02:08:26.665Z,-4.09
2018-02-09T02:10:54.054Z,-4.23
2018-02-09T02:13:21.468Z,-4.12
2018-02-09T02:15:48.934Z,-3.90
2018-02-09T02:18:16.341Z,-3.75
2018-02-09T02:20:43.802Z,-3.78
2018-02-09T02:23:11.206Z,-3.69
2018-02-09T02:25:38.658Z,-3.67
2018-02-09T02:28:06.065Z,-3.60
2018-02-09T02:30:33.473Z,-3.61
2018-02-09T02:33:00.866Z,-3.56
2018-02-09T02:35:28.265Z,-3.53
2018-02-09T02:37:55.663Z,-3.55
2018-02-09T02:40:23.075Z,-3.60
2018-02-09T02:42:50.527Z,-3.62
2018-02-09T02:45:17.955Z,-3.69
2018-02-09T02:47:45.361Z,-3.65
2018-02-09T02:50:12.754Z,-3.64
2018-02-09T02:52:40.167Z,-3.64
2018-02-09T02:55:07.562Z,-3.62
2018-02-09T02:57:34.954Z,-3.63
2018-02-09T03:00:02.365Z,-3.63
2018-02-09T03:02:29.754Z,-3.81
2018-02-09T03:04:57.154Z,-3.84
2018-02-09T03:07:24.582Z,-3.84
2018-02-09T03:09:51.997Z,-3.82
2018-02-09T03:12:19.693Z,-3.88
2018-02-09T03:14:47.105Z,-3.89
2018-02-09T03:17:14.490Z,-3.92
2018-02-09T03:19:42.030Z,-3.88
2018-02-09T03:22:09.446Z,-3.85
2018-02-09T03:24:36.850Z,-3.81
2018-02-09T03:27:04.242Z,-3.78
2018-02-09T03:29:31.651Z,-3.79
2018-02-09T03:31:59.106Z,-3.82
2018-02-09T03:34:26.527Z,-3.90
2018-02-09T03:36:54.007Z,-4.11
2018-02-09T03:39:21.466Z,-4.11
2018-02-09T03:41:48.871Z,-4.02
2018-02-09T03:44:16.283Z,-3.97
2018-02-09T03:46:43.666Z,-3.94
2018-02-09T03:49:11.083Z,-3.91
2018-02-09T03:51:38.475Z,-3.88
2018-02-09T03:54:05.915Z,-3.82
2018-02-09T03:56:33.334Z,-3.73
2018-02-09T03:59:00.742Z,-3.87
2018-02-09T04:01:28.142Z,-3.78
2018-02-09T04:03:55.627Z,-3.82
2018-02-09T04:06:23.043Z,-3.81
2018-02-09T04:08:50.541Z,-3.84
2018-02-09T04:11:17.952Z,-3.86
2018-02-09T04:13:45.350Z,-3.93
2018-02-09T04:16:12.758Z,-3.87
2018-02-09T04:18:40.161Z,-3.89
2018-02-09T04:21:07.609Z,-3.84
2018-02-09T04:23:35.062Z,-3.82
2018-02-09T04:26:02.476Z,-3.78
2018-02-09T04:28:29.866Z,-3.79
2018-02-09T04:30:57.272Z,-3.83
2018-02-09T04:33:24.683Z,-3.85
2018-02-09T04:35:52.097Z,-3.84
2018-02-09T04:38:19.491Z,-3.81
2018-02-09T04:40:46.946Z,-3.79
2018-02-09T04:43:14.348Z,-3.77
2018-02-09T04:45:41.751Z,-3.79
2018-02-09T04:48:09.141Z,-3.84
2018-02-09T04:50:36.541Z,-3.84
2018-02-09T04:53:03.941Z,-3.91
2018-02-09T04:55:31.338Z,-3.94
2018-02-09T04:57:58.729Z,-3.97
2018-02-09T05:00:26.151Z,-3.94
2018-02-09T05:02:53.538Z,-3.86
2018-02-09T05:05:20.946Z,-3.86
2018-02-09T05:07:48.342Z,-3.80
2018-02-09T05:10:15.759Z,-3.74
2018-02-09T05:12:43.154Z,-3.70
2018-02-09T05:15:10.611Z,-3.69
2018-02-09T05:17:38.066Z,-3.70
2018-02-09T05:20:05.471Z,-3.74
2018-02-09T05:22:32.861Z,-3.79
2018-02-09T05:25:00.262Z,-3.78
2018-02-09T05:27:27.702Z,-3.80
2018-02-09T05:29:55.143Z,-3.85
2018-02-09T05:32:22.542Z,-3.84
2018-02-09T05:34:49.937Z,-3.84
2018-02-09T05:37:17.339Z,-3.88
2018-02-09T05:39:44.737Z,-3.88
2018-02-09T05:42:12.135Z,-3.89
2018-02-09T05:44:39.533Z,-3.93
2018-02-09T05:47:07.039Z,-4.01
2018-02-09T05:49:34.441Z,-4.00
2018-02-09T05:52:01.849Z,-3.97
2018-02-09T05:54:29.292Z,-3.94
2018-02-09T05:56:56.685Z,-3.94
2018-02-09T05:59:24.078Z,-3.93
2018-02-09T06:01:51.567Z,-3.95
2018-02-09T06:04:19.020Z,-3.97
2018-02-09T06:06:46.466Z,-3.92
2018-02-09T06:09:13.861Z,-3.99
2018-02-09T06:11:41.270Z,-3.98
2018-02-09T06:14:08.675Z,-4.09
2018-02-09T06:16:36.122Z,-4.24
2018-02-09T06:19:03.519Z,-4.20
2018-02-09T06:21:30.956Z,-4.15
2018-02-09T06:23:58.343Z,-4.18
2018-02-09T06:26:25.763Z,-4.20
2018-02-09T06:28:53.277Z,-4.22
2018-02-09T06:31:20.731Z,-4.29
2018-02-09T06:33:48.123Z,-4.32
2018-02-09T06:36:15.517Z,-4.52
2018-02-09T06:38:42.910Z,-4.43
2018-02-09T06:41:10.326Z,-4.43
2018-02-09T06:43:37.718Z,-4.38
2018-02-09T06:46:05.122Z,-4.42
2018-02-09T06:48:32.519Z,-4.59
2018-02-09T06:50:59.931Z,-4.65
2018-02-09T06:53:27.335Z,-4.82
2018-02-09T06:55:54.730Z,-4.93
2018-02-09T06:58:22.130Z,-4.92
2018-02-09T07:00:49.532Z,-4.99
2018-02-09T07:03:17.027Z,-4.82
2018-02-09T07:05:44.430Z,-4.65
2018-02-09T07:08:11.831Z,-4.58
2018-02-09T07:10:39.238Z,-4.51
2018-02-09T07:13:06.630Z,-4.51
2018-02-09T07:15:34.030Z,-4.58
2018-02-09T07:18:01.422Z,-4.65
2018-02-09T07:20:28.854Z,-4.55
2018-02-09T07:22:56.245Z,-4.40
2018-02-09T07:25:23.649Z,-4.35
2018-02-09T07:27:51.045Z,-4.25
2018-02-09T07:30:18.443Z,-4.20
2018-02-09T07:32:45.878Z,-4.16
2018-02-09T07:35:13.338Z,-4.03
2018-02-09T07:37:40.735Z,-3.92
2018-02-09T07:40:08.138Z,-3.88
2018-02-09T07:42:35.602Z,-4.07
2018-02-09T07:45:02.997Z,-4.04
2018-02-09T07:47:30.393Z,-3.82
2018-02-09T07:49:57.786Z,-3.13
2018-02-09T07:52:25.270Z,-2.39
2018-02-09T07:54:52.623Z,-1.92
2018-02-09T07:57:20.026Z,-1.22
2018-02-09T07:59:47.422Z,-0.58
2018-02-09T08:02:14.827Z,0.24
2018-02-09T08:04:42.220Z,0.79
2018-02-09T08:07:09.614Z,1.29
2018-02-09T08:09:37.027Z,1.43
2018-02-09T08:12:04.423Z,1.44
2018-02-09T08:14:31.814Z,1.87
2018-02-09T08:16:59.949Z,2.35
2018-02-09T08:19:27.438Z,1.70
2018-02-09T08:21:54.839Z,2.17
2018-02-09T08:24:22.280Z,2.65
2018-02-09T08:26:49.626Z,3.18
2018-02-09T08:29:17.021Z,3.36
2018-02-09T08:31:44.513Z,3.64
2018-02-09T08:34:11.903Z,3.83
2018-02-09T08:36:39.300Z,3.47
2018-02-09T08:39:06.690Z,3.70
2018-02-09T08:41:34.091Z,3.96
2018-02-09T08:44:01.477Z,4.30
2018-02-09T08:46:28.878Z,4.68
2018-02-09T08:48:56.282Z,4.65
2018-02-09T08:51:24.546Z,4.81
2018-02-09T08:53:51.926Z,5.04
2018-02-09T08:56:19.349Z,5.05
2018-02-09T08:58:46.744Z,5.42
2018-02-09T09:01:14.146Z,5.97
2018-02-09T09:03:41.543Z,5.88
2018-02-09T09:06:08.934Z,6.25
2018-02-09T09:08:36.329Z,6.28
2018-02-09T09:11:03.812Z,6.42
2018-02-09T09:13:31.223Z,6.57
2018-02-09T09:15:58.608Z,6.42
2018-02-09T09:18:26.010Z,6.16
2018-02-09T09:20:53.402Z,6.11
2018-02-09T09:23:20.795Z,6.28
2018-02-09T09:25:48.186Z,6.21
2018-02-09T09:28:15.586Z,5.96
2018-02-09T09:30:42.982Z,6.38
2018-02-09T09:33:10.378Z,6.05
2018-02-09T09:35:37.769Z,5.75
2018-02-09T09:38:05.169Z,5.19
2018-02-09T09:40:32.565Z,5.11
2018-02-09T09:42:59.958Z,5.01
2018-02-09T09:45:27.346Z,5.31
2018-02-09T09:47:54.748Z,5.78
2018-02-09T09:50:22.700Z,6.28
2018-02-09T09:52:50.085Z,6.34
2018-02-09T09:55:17.478Z,6.50
2018-02-09T09:57:44.883Z,6.62
2018-02-09T10:00:12.266Z,6.54
2018-02-09T10:02:40.458Z,6.45
2018-02-09T10:05:07.841Z,6.46
2018-02-09T10:07:35.258Z,6.31
2018-02-09T10:10:02.629Z,5.93
2018-02-09T10:12:30.031Z,6.38
2018-02-09T10:14:57.425Z,6.56
2018-02-09T10:17:24.822Z,6.29
2018-02-09T10:19:52.209Z,5.88
2018-02-09T10:22:19.607Z,6.13
2018-02-09T10:24:46.999Z,6.22
2018-02-09T10:27:14.394Z,5.88
2018-02-09T10:29:41.793Z,5.24
2018-02-09T10:32:09.194Z,5.47
2018-02-09T10:34:36.603Z,5.11
2018-02-09T10:37:03.993Z,5.07
2018-02-09T10:39:31.420Z,5.04
2018-02-09T10:41:58.869Z,5.26
2018-02-09T10:44:26.261Z,5.79
2018-02-09T10:46:53.658Z,5.43
2018-02-09T10:49:21.049Z,5.13
2018-02-09T10:51:48.493Z,5.52
2018-02-09T10:54:15.941Z,6.02
2018-02-09T10:56:43.340Z,5.70
2018-02-09T10:59:10.737Z,5.78
2018-02-09T11:01:38.134Z,5.81
2018-02-09T11:04:05.526Z,5.63
2018-02-09T11:06:33.030Z,5.36
2018-02-09T11:09:00.417Z,5.02
2018-02-09T11:11:27.806Z,5.21
2018-02-09T11:13:55.293Z,4.82
2018-02-09T11:16:22.694Z,5.36
2018-02-09T11:18:50.089Z,5.72
2018-02-09T11:21:17.478Z,5.19
2018-02-09T11:23:44.882Z,4.77
2018-02-09T11:26:12.277Z,4.87
2018-02-09T11:28:39.679Z,4.97
2018-02-09T11:31:07.066Z,4.84
2018-02-09T11:33:35.238Z,4.93
2018-02-09T11:36:02.625Z,4.94
2018-02-09T11:38:30.029Z,5.16
2018-02-09T11:40:57.414Z,4.82
2018-02-09T11:43:24.809Z,4.25
2018-02-09T11:45:52.209Z,3.87
2018-02-09T11:48:19.685Z,3.59
2018-02-09T11:50:47.077Z,3.71
2018-02-09T11:53:14.487Z,3.75
2018-02-09T11:55:41.964Z,3.53
2018-02-09T11:58:09.354Z,3.30
2018-02-09T12:00:36.750Z,3.22
2018-02-09T12:03:04.147Z,3.09
2018-02-09T12:05:31.538Z,2.97
2018-02-09T12:07:58.944Z,2.70
2018-02-09T12:10:26.351Z,2.95
2018-02-09T12:12:53.730Z,3.17
2018-02-09T12:15:21.178Z,3.10
2018-02-09T12:17:48.590Z,3.37
2018-02-09T12:20:15.978Z,3.66
2018-02-09T12:22:43.376Z,3.60
2018-02-09T12:25:10.771Z,3.73
2018-02-09T12:27:38.173Z,3.71
2018-02-09T12:30:05.626Z,3.91
2018-02-09T12:32:33.056Z,3.81
2018-02-09T12:35:00.446Z,3.80
2018-02-09T12:37:27.847Z,3.77
2018-02-09T12:39:55.234Z,3.60
2018-02-09T12:42:22.631Z,3.59
2018-02-09T12:44:50.015Z,3.57
2018-02-09T12:47:17.414Z,3.53
2018-02-09T12:49:44.873Z,3.84
2018-02-09T12:52:12.334Z,3.69
2018-02-09T12:54:39.738Z,3.69
2018-02-09T12:57:07.141Z,3.62
2018-02-09T12:59:34.538Z,3.81
2018-02-09T13:02:01.930Z,3.83
2018-02-09T13:04:29.327Z,3.82
2018-02-09T13:06:56.770Z,3.72
2018-02-09T13:09:24.170Z,3.73
2018-02-09T13:11:51.570Z,3.75
2018-02-09T13:14:30.822Z,3.91
2018-02-09T13:16:58.214Z,3.83
2018-02-09T13:19:25.619Z,3.79
2018-02-09T13:21:53.003Z,3.89
2018-02-09T13:24:21.966Z,4.11
2018-02-09T13:26:49.354Z,4.51
2018-02-09T13:29:16.789Z,4.42
2018-02-09T13:31:44.246Z,4.44
2018-02-09T13:34:11.718Z,4.53
2018-02-09T13:39:39.980Z,4.44
2018-02-09T13:42:07.365Z,4.29
2018-02-09T13:44:34.762Z,4.19
2018-02-09T13:47:02.153Z,3.86
2018-02-09T13:49:29.549Z,3.88
2018-02-09T13:51:56.956Z,3.92
2018-02-09T13:54:24.351Z,3.84
2018-02-09T13:56:51.746Z,3.98
2018-02-09T13:59:19.142Z,3.90
2018-02-09T14:01:46.543Z,3.81
2018-02-09T14:04:13.942Z,3.89
2018-02-09T14:06:41.330Z,4.10
2018-02-09T14:09:08.726Z,4.17
2018-02-09T14:11:36.116Z,4.21
2018-02-09T14:14:03.510Z,4.33
2018-02-09T14:16:30.932Z,4.55
2018-02-09T14:18:58.329Z,4.65
2018-02-09T14:21:25.734Z,4.75
2018-02-09T14:23:53.279Z,4.84
2018-02-09T14:26:20.682Z,4.79
2018-02-09T14:28:48.066Z,4.54
2018-02-09T14:31:15.463Z,4.33
2018-02-09T14:33:42.855Z,4.05
2018-02-09T14:36:10.257Z,4.03
2018-02-09T14:38:37.645Z,4.02
2018-02-09T14:41:05.081Z,3.94
2018-02-09T14:43:32.478Z,3.90
2018-02-09T14:45:59.877Z,3.90
2018-02-09T14:48:27.264Z,3.79
2018-02-09T14:50:54.670Z,3.67
2018-02-09T14:53:22.059Z,3.69
2018-02-09T14:55:49.457Z,3.73
2018-02-09T14:58:16.886Z,3.86
2018-02-09T15:00:44.287Z,3.98
2018-02-09T15:03:11.699Z,3.89
2018-02-09T15:05:39.103Z,4.02
2018-02-09T15:08:06.497Z,3.87
2018-02-09T15:10:33.904Z,3.90
2018-02-09T15:13:01.290Z,3.77
2018-02-09T15:15:28.690Z,3.56
2018-02-09T15:17:56.088Z,3.39
2018-02-09T15:20:23.575Z,3.36
2018-02-09T15:22:51.033Z,3.33
2018-02-09T15:25:18.422Z,3.42
2018-02-09T15:27:45.842Z,3.59
2018-02-09T15:30:13.242Z,3.45
2018-02-09T15:32:40.647Z,3.29
2018-02-09T15:35:08.039Z,3.22
2018-02-09T15:37:35.431Z,3.42
2018-02-09T15:40:02.832Z,3.23
2018-02-09T15:42:30.221Z,3.37
2018-02-09T15:44:57.613Z,3.29
2018-02-09T15:47:25.094Z,3.16
2018-02-09T15:49:52.487Z,2.97
2018-02-09T15:52:19.898Z,2.89
2018-02-09T15:54:47.346Z,2.76
2018-02-09T15:57:14.733Z,2.80
2018-02-09T15:59:42.134Z,2.75
2018-02-09T16:02:09.737Z,2.63
2018-02-09T16:04:37.109Z,2.77
2018-02-09T16:07:04.498Z,2.77
2018-02-09T16:09:31.885Z,2.44
2018-02-09T16:11:59.346Z,2.26
2018-02-09T16:14:26.743Z,2.29
2018-02-09T16:16:54.137Z,2.12
2018-02-09T16:19:21.542Z,1.98
2018-02-09T16:21:48.931Z,1.87
2018-02-09T16:24:16.424Z,1.89
2018-02-09T16:26:43.835Z,1.82
2018-02-09T16:29:11.226Z,1.84
2018-02-09T16:31:38.691Z,1.82
2018-02-09T16:34:06.160Z,1.44
2018-02-09T16:36:33.534Z,1.55
2018-02-09T16:39:00.942Z,1.70
2018-02-09T16:41:28.334Z,1.65
2018-02-09T16:43:55.783Z,1.63
2018-02-09T16:46:23.186Z,1.54
2018-02-09T16:48:50.598Z,1.56
2018-02-09T16:51:17.998Z,1.37
2018-02-09T16:53:45.389Z,1.36
2018-02-09T16:56:12.794Z,1.27
2018-02-09T16:58:40.191Z,1.25
2018-02-09T17:01:07.596Z,1.29
2018-02-09T17:03:34.994Z,1.31
2018-02-09T17:06:02.399Z,1.23
2018-02-09T17:08:29.818Z,1.26
2018-02-09T17:10:57.289Z,1.30
2018-02-09T17:13:24.740Z,1.36
2018-02-09T17:15:52.134Z,1.26
2018-02-09T17:18:19.537Z,1.36
2018-02-09T17:20:46.936Z,1.43
2018-02-09T17:23:14.331Z,1.45
2018-02-09T17:25:41.860Z,1.40
2018-02-09T17:28:09.210Z,1.24
2018-02-09T17:30:36.718Z,1.14
2018-02-09T17:33:04.118Z,1.19
2018-02-09T17:35:31.526Z,1.17
2018-02-09T17:37:58.923Z,1.12
2018-02-09T17:40:26.334Z,1.02
2018-02-09T17:42:53.722Z,1.19
2018-02-09T17:45:21.118Z,1.27
2018-02-09T17:47:48.505Z,1.27
2018-02-09T17:50:15.917Z,1.22
2018-02-09T17:52:43.342Z,1.16
2018-02-09T17:55:10.758Z,1.17
2018-02-09T17:57:38.238Z,1.11
2018-02-09T18:00:05.643Z,1.06
2018-02-09T18:02:33.034Z,1.03
2018-02-09T18:05:00.429Z,1.01
2018-02-09T18:07:27.868Z,0.96
2018-02-09T18:09:55.320Z,0.96
2018-02-09T18:12:22.718Z,1.00
2018-02-09T18:14:50.115Z,0.98
2018-02-09T18:17:17.514Z,0.98
2018-02-09T18:19:44.910Z,0.94
2018-02-09T18:22:12.389Z,1.03
2018-02-09T18:24:39.788Z,1.08
2018-02-09T18:27:07.191Z,1.06
2018-02-09T18:29:34.590Z,0.82
2018-02-09T18:32:02.018Z,0.86
2018-02-09T18:34:29.422Z,0.87
2018-02-09T18:36:56.821Z,0.86
2018-02-09T18:39:24.273Z,0.86
2018-02-09T18:44:32.585Z,0.75
2018-02-09T18:46:59.999Z,0.59
2018-02-09T18:49:27.391Z,0.53
2018-02-09T18:51:54.786Z,0.40
2018-02-09T18:54:22.178Z,0.30
2018-02-09T18:56:49.577Z,0.32
2018-02-09T18:59:16.979Z,0.05
2018-02-09T19:01:44.378Z,0.13
2018-02-09T19:04:11.838Z,0.05
2018-02-09T19:06:39.237Z,0.04
2018-02-09T19:09:06.738Z,-0.03
2018-02-09T19:11:34.245Z,-0.02
2018-02-09T19:14:01.594Z,-0.19
2018-02-09T19:16:28.999Z,-0.11
2018-02-09T19:18:56.397Z,-0.19
2018-02-09T19:21:23.810Z,-0.25
2018-02-09T19:23:51.214Z,-0.19
2018-02-09T19:26:18.614Z,-0.19
2018-02-09T19:28:46.049Z,-0.25
2018-02-09T19:31:13.455Z,-0.20
2018-02-09T19:33:40.856Z,-0.14
2018-02-09T19:36:08.347Z,-0.10
2018-02-09T19:38:35.751Z,-0.06
2018-02-09T19:41:03.158Z,-0.06
2018-02-09T19:43:30.563Z,-0.03
2018-02-09T19:45:57.965Z,-0.03
2018-02-09T19:48:26.255Z,0.01
2018-02-09T19:50:53.671Z,0.04
2018-02-09T19:53:22.014Z,0.05
2018-02-09T19:55:49.416Z,0.06
2018-02-09T19:58:16.826Z,-0.03
2018-02-09T20:00:44.231Z,0.00
2018-02-09T20:03:11.698Z,-0.02
2018-02-09T20:05:39.173Z,-0.03
2018-02-09T20:08:06.638Z,0.01
2018-02-09T20:10:34.082Z,0.06
2018-02-09T20:13:01.490Z,0.09
2018-02-09T20:15:29.498Z,0.09
2018-02-09T20:17:56.903Z,0.04
2018-02-09T20:20:24.298Z,0.04
2018-02-09T20:22:51.694Z,0.06
2018-02-09T20:25:19.089Z,0.07
2018-02-09T20:27:46.496Z,0.05
2018-02-09T20:30:13.899Z,0.07
2018-02-09T20:32:41.298Z,0.03
2018-02-09T20:35:08.706Z,0.00
2018-02-09T20:37:36.113Z,-0.02
2018-02-09T20:40:03.520Z,-0.06
2018-02-09T20:42:30.943Z,-0.09
2018-02-09T20:44:58.327Z,-0.12
2018-02-09T20:47:25.819Z,-0.15
2018-02-09T20:49:53.214Z,-0.18
2018-02-09T20:52:20.731Z,-0.25
2018-02-09T20:54:48.130Z,-0.28
2018-02-09T20:57:15.540Z,-0.32
2018-02-09T20:59:43.270Z,-0.36
2018-02-09T21:02:10.678Z,-0.42
2018-02-09T21:04:38.082Z,-0.51
2018-02-09T21:07:05.578Z,-0.63
2018-02-09T21:09:32.974Z,-0.69
2018-02-09T21:12:00.474Z,-0.66
2018-02-09T21:14:27.882Z,-0.72
2018-02-09T21:16:55.285Z,-0.83
2018-02-09T21:19:22.690Z,-0.87
2018-02-09T21:21:50.203Z,-0.86
2018-02-09T21:24:17.598Z,-0.82
2018-02-09T21:26:45.007Z,-0.82
2018-02-09T21:29:12.462Z,-0.81
2018-02-09T21:31:40.042Z,-0.94
2018-02-09T21:34:07.479Z,-0.94
2018-02-09T21:36:34.944Z,-1.18
2018-02-09T21:39:02.333Z,-1.12
2018-02-09T21:41:29.746Z,-1.10
2018-02-09T21:43:57.137Z,-1.13
2018-02-09T21:46:24.549Z,-1.13
2018-02-09T21:48:51.947Z,-1.12
2018-02-09T21:51:19.355Z,-1.19
2018-02-09T21:53:46.837Z,-1.18
2018-02-09T21:56:14.297Z,-1.22
2018-02-09T21:58:41.704Z,-1.28
2018-02-09T22:01:09.114Z,-1.27
2018-02-09T22:03:36.553Z,-1.24
2018-02-09T22:06:03.962Z,-1.21
2018-02-09T22:08:31.473Z,-1.21
2018-02-09T22:10:58.874Z,-1.21
2018-02-09T22:13:26.396Z,-1.18
2018-02-09T22:15:53.825Z,-1.18
2018-02-09T22:18:21.185Z,-1.17
2018-02-09T22:20:48.641Z,-1.22
2018-02-09T22:23:16.518Z,-1.72
2018-02-09T22:25:43.971Z,-1.57
2018-02-09T22:28:11.379Z,-1.54
2018-02-09T22:30:38.815Z,-1.51
2018-02-09T22:33:06.252Z,-1.51
2018-02-09T22:35:33.641Z,-1.51
2018-02-09T22:38:01.046Z,-1.53
2018-02-09T22:40:28.441Z,-1.55
2018-02-09T22:42:56.674Z,-1.56
2018-02-09T22:45:24.074Z,-1.56
2018-02-09T22:47:51.481Z,-1.57
2018-02-09T22:50:18.877Z,-1.61
2018-02-09T22:52:46.291Z,-1.66
2018-02-09T22:55:13.705Z,-1.70
2018-02-09T22:57:41.115Z,-1.72
2018-02-09T23:00:08.632Z,-1.74
2018-02-09T23:02:36.078Z,-1.76
2018-02-09T23:05:03.530Z,-1.76
2018-02-09T23:07:30.985Z,-1.80
2018-02-09T23:09:58.383Z,-1.89
2018-02-09T23:12:25.786Z,-1.93
2018-02-09T23:14:53.197Z,-1.93
2018-02-09T23:17:20.614Z,-1.92
2018-02-09T23:19:48.026Z,-1.91
2018-02-09T23:22:15.418Z,-1.91
2018-02-09T23:24:42.823Z,-1.92
2018-02-09T23:27:10.227Z,-1.91
2018-02-09T23:29:37.676Z,-1.93
2018-02-09T23:32:05.079Z,-1.93
2018-02-09T23:34:32.469Z,-2.01
2018-02-09T23:36:59.879Z,-2.13
2018-02-09T23:39:27.322Z,-2.11
2018-02-09T23:41:54.706Z,-2.15
2018-02-09T23:44:22.102Z,-2.14
2018-02-09T23:46:49.504Z,-2.13
2018-02-09T23:49:17.022Z,-2.13
2018-02-09T23:51:44.446Z,-2.12
2018-02-09T23:54:11.838Z,-2.16
2018-02-09T23:56:39.238Z,-2.17
2018-02-09T23:59:06.642Z,-2.21
